createdAt,value
2023-03-19T00:01:54.261Z,55.94
2023-03-19T00:04:56.798Z,55.90
2023-03-19T00:08:00.787Z,54.60
2023-03-19T00:11:07.240Z,55.09
2023-03-19T00:14:09.928Z,55.38
2023-03-19T00:17:12.387Z,54.96
2023-03-19T00:20:16.071Z,55.11
2023-03-19T00:23:19.878Z,54.89
2023-03-19T00:26:22.347Z,55.44
2023-03-19T00:29:24.958Z,55.91
2023-03-19T00:32:27.499Z,55.97
2023-03-19T00:35:29.999Z,56.84
2023-03-19T00:38:34.221Z,56.90
2023-03-19T00:41:37.027Z,56.68
2023-03-19T00:44:39.541Z,56.52
2023-03-19T00:47:42.146Z,56.45
2023-03-19T00:50:44.742Z,56.47
2023-03-19T00:53:48.671Z,56.34
2023-03-19T00:56:51.225Z,55.90
2023-03-19T00:59:53.766Z,56.07
2023-03-19T01:02:56.533Z,54.98
2023-03-19T01:05:59.406Z,55.62
2023-03-19T01:09:03.308Z,55.66
2023-03-19T01:12:06.553Z,56.12
2023-03-19T01:15:10.393Z,55.53
2023-03-19T01:18:13.325Z,55.78
2023-03-19T01:21:15.913Z,55.00
2023-03-19T01:24:19.828Z,54.72
2023-03-19T01:27:22.848Z,54.44
2023-03-19T01:30:25.357Z,54.30
2023-03-19T01:33:27.941Z,54.19
2023-03-19T01:36:30.605Z,54.36
2023-03-19T01:39:34.829Z,54.64
2023-03-19T01:42:52.416Z,54.26
2023-03-19T01:45:58.272Z,54.80
2023-03-19T01:49:01.999Z,54.50
2023-03-19T01:52:06.116Z,53.84
2023-03-19T01:55:10.635Z,52.07
2023-03-19T01:58:13.274Z,49.02
2023-03-19T02:01:15.930Z,47.91
2023-03-19T02:04:19.536Z,46.59
2023-03-19T02:07:21.992Z,46.55
2023-03-19T02:10:26.397Z,46.56
2023-03-19T02:13:29.386Z,46.65
2023-03-19T02:16:32.120Z,48.15
2023-03-19T02:19:39.442Z,48.63
2023-03-19T02:22:44.762Z,49.67
2023-03-19T02:25:57.970Z,51.24
2023-03-19T02:29:00.549Z,55.06
2023-03-19T02:32:03.758Z,62.53
2023-03-19T02:35:06.961Z,67.08
2023-03-19T02:38:09.616Z,70.08
2023-03-19T02:41:13.685Z,70.89
2023-03-19T02:44:19.868Z,72.62
2023-03-19T02:47:22.477Z,73.04
2023-03-19T02:50:25.463Z,73.23
2023-03-19T02:53:28.113Z,73.40
2023-03-19T02:56:32.321Z,74.47
2023-03-19T02:59:34.886Z,75.17
2023-03-19T03:02:38.545Z,74.52
2023-03-19T03:05:40.859Z,74.27
2023-03-19T03:08:43.375Z,74.50
2023-03-19T03:11:47.804Z,73.98
2023-03-19T03:14:50.348Z,75.12
2023-03-19T03:17:52.976Z,74.86
2023-03-19T03:20:55.700Z,75.31
2023-03-19T03:23:58.202Z,76.41
2023-03-19T03:27:02.160Z,75.05
2023-03-19T03:30:05.137Z,76.01
2023-03-19T03:33:08.496Z,76.70
2023-03-19T03:36:12.355Z,76.57
2023-03-19T03:39:14.986Z,77.69
2023-03-19T03:42:19.052Z,76.62
2023-03-19T03:45:21.693Z,77.36
2023-03-19T03:48:24.388Z,76.15
2023-03-19T03:51:27.018Z,77.35
2023-03-19T03:54:29.576Z,76.93
2023-03-19T03:57:33.448Z,77.02
2023-03-19T04:00:36.157Z,77.23
2023-03-19T04:03:38.828Z,77.40
2023-03-19T04:06:41.389Z,77.34
2023-03-19T04:09:44.120Z,76.70
2023-03-19T04:12:47.930Z,76.80
2023-03-19T04:15:50.498Z,76.22
2023-03-19T04:18:53.016Z,76.59
2023-03-19T04:21:55.631Z,77.06
2023-03-19T04:24:58.523Z,77.28
2023-03-19T04:28:03.657Z,75.99
2023-03-19T04:31:07.527Z,75.93
2023-03-19T04:34:10.356Z,75.71
2023-03-19T04:37:13.126Z,75.53
2023-03-19T04:40:16.761Z,76.04
2023-03-19T04:43:20.483Z,75.88
2023-03-19T04:46:23.028Z,75.64
2023-03-19T04:49:25.975Z,75.87
2023-03-19T04:52:29.283Z,76.71
2023-03-19T04:55:32.433Z,76.07
2023-03-19T04:58:36.288Z,76.08
2023-03-19T05:01:39.028Z,76.13
2023-03-19T05:04:41.705Z,76.11
2023-03-19T05:07:44.269Z,76.74
2023-03-19T05:10:47.217Z,76.89
2023-03-19T05:13:51.088Z,77.22
2023-03-19T05:16:54.241Z,76.69
2023-03-19T05:19:57.029Z,77.66
2023-03-19T05:23:00.579Z,77.36
2023-03-19T05:26:03.146Z,77.37
2023-03-19T05:29:10.677Z,78.00
2023-03-19T05:32:13.659Z,78.49
2023-03-19T05:35:17.458Z,78.13
2023-03-19T05:38:20.087Z,79.00
2023-03-19T05:41:22.861Z,79.33
2023-03-19T05:44:27.183Z,78.86
2023-03-19T05:47:29.685Z,78.94
2023-03-19T05:50:33.426Z,79.17
2023-03-19T05:53:36.132Z,79.39
2023-03-19T05:56:38.720Z,79.35
2023-03-19T05:59:42.863Z,78.90
2023-03-19T06:02:45.807Z,78.59
2023-03-19T06:05:49.985Z,78.36
2023-03-19T06:08:53.013Z,77.57
2023-03-19T06:11:55.618Z,76.89
2023-03-19T06:14:59.459Z,77.39
2023-03-19T06:18:01.922Z,76.54
2023-03-19T06:21:05.260Z,76.50
2023-03-19T06:24:08.180Z,76.79
2023-03-19T06:27:10.851Z,75.84
2023-03-19T06:30:15.556Z,75.42
2023-03-19T06:33:18.396Z,74.86
2023-03-19T06:36:20.911Z,73.70
2023-03-19T06:39:23.520Z,73.68
2023-03-19T06:42:27.025Z,73.57
2023-03-19T06:45:30.945Z,73.29
2023-03-19T06:48:33.719Z,72.08
2023-03-19T06:51:36.170Z,71.52
2023-03-19T06:54:38.700Z,71.25
2023-03-19T06:57:41.368Z,70.96
2023-03-19T07:00:45.333Z,70.40
2023-03-19T07:03:47.923Z,69.98
2023-03-19T07:06:50.466Z,68.97
2023-03-19T07:09:53.247Z,69.10
2023-03-19T07:12:55.932Z,68.11
2023-03-19T07:15:59.924Z,67.77
2023-03-19T07:19:02.416Z,67.39
2023-03-19T07:22:05.208Z,66.08
2023-03-19T07:25:08.781Z,65.94
2023-03-19T07:28:11.181Z,65.83
2023-03-19T07:31:16.833Z,63.74
2023-03-19T07:34:19.430Z,62.56
2023-03-19T07:37:22.656Z,62.21
2023-03-19T07:40:25.605Z,60.86
2023-03-19T07:43:28.068Z,60.54
2023-03-19T07:46:32.014Z,60.95
2023-03-19T07:49:34.514Z,61.52
2023-03-19T07:52:37.115Z,59.01
2023-03-19T07:55:39.712Z,59.42
2023-03-19T07:58:42.300Z,59.38
2023-03-19T08:01:46.108Z,59.90
2023-03-19T08:04:48.684Z,60.24
2023-03-19T08:07:51.654Z,58.24
2023-03-19T08:10:54.783Z,57.53
2023-03-19T08:13:57.325Z,57.02
2023-03-19T08:17:01.569Z,57.02
2023-03-19T08:20:04.600Z,56.80
2023-03-19T08:23:07.296Z,56.63
2023-03-19T08:26:09.906Z,56.13
2023-03-19T08:29:12.623Z,55.72
2023-03-19T08:32:16.917Z,54.77
2023-03-19T08:35:20.208Z,55.32
2023-03-19T08:38:22.703Z,54.19
2023-03-19T08:41:26.093Z,53.16
2023-03-19T08:44:28.864Z,52.51
2023-03-19T08:47:32.840Z,51.06
2023-03-19T08:50:35.967Z,49.22
2023-03-19T08:53:39.891Z,48.93
2023-03-19T08:56:42.400Z,49.39
2023-03-19T08:59:45.561Z,50.67
2023-03-19T09:02:49.513Z,49.46
2023-03-19T09:05:52.122Z,48.83
2023-03-19T09:08:54.660Z,48.71
2023-03-19T09:11:57.414Z,49.40
2023-03-19T09:14:59.932Z,48.82
2023-03-19T09:18:04.048Z,48.23
2023-03-19T09:21:06.938Z,47.51
2023-03-19T09:24:09.751Z,47.21
2023-03-19T09:27:12.592Z,45.33
2023-03-19T09:30:15.601Z,45.64
2023-03-19T09:33:21.345Z,44.07
2023-03-19T09:36:23.930Z,43.73
2023-03-19T09:39:26.584Z,44.47
2023-03-19T09:42:43.109Z,43.68
2023-03-19T09:45:46.782Z,45.01
2023-03-19T09:48:53.838Z,46.81
2023-03-19T09:51:58.117Z,46.75
2023-03-19T09:55:04.522Z,45.93
2023-03-19T09:58:13.852Z,44.75
2023-03-19T10:01:25.696Z,41.91
2023-03-19T10:04:40.506Z,41.05
2023-03-19T10:07:51.681Z,41.67
2023-03-19T10:11:04.730Z,41.18
2023-03-19T10:14:22.168Z,43.81
2023-03-19T10:17:30.227Z,43.24
2023-03-19T10:20:40.988Z,42.17
2023-03-19T10:23:46.680Z,42.19
2023-03-19T10:26:49.527Z,41.22
2023-03-19T10:29:52.172Z,40.95
2023-03-19T10:33:00.764Z,40.39
2023-03-19T10:36:07.133Z,40.07
2023-03-19T10:39:09.956Z,39.26
2023-03-19T10:42:33.339Z,38.49
2023-03-19T10:45:38.860Z,36.76
2023-03-19T10:48:44.486Z,37.09
2023-03-19T10:51:49.150Z,36.98
2023-03-19T10:54:55.887Z,35.33
2023-03-19T10:58:04.635Z,35.54
2023-03-19T11:01:10.021Z,35.03
2023-03-19T11:04:15.365Z,34.56
2023-03-19T11:07:21.617Z,33.05
2023-03-19T11:10:25.593Z,32.14
2023-03-19T11:13:28.474Z,31.76
2023-03-19T11:16:31.176Z,32.28
2023-03-19T11:19:35.509Z,32.71
2023-03-19T11:22:39.993Z,33.80
2023-03-19T11:25:43.557Z,32.92
2023-03-19T11:28:51.698Z,32.15
2023-03-19T11:32:08.649Z,32.12
2023-03-19T11:35:22.024Z,31.15
2023-03-19T11:38:32.836Z,30.23
2023-03-19T11:41:48.360Z,30.61
2023-03-19T11:44:58.368Z,31.69
2023-03-19T11:48:10.187Z,32.58
2023-03-19T11:51:18.992Z,32.82
2023-03-19T11:54:28.857Z,31.52
2023-03-19T11:57:48.866Z,31.40
2023-03-19T12:00:52.710Z,32.13
2023-03-19T12:04:28.922Z,32.37
2023-03-19T12:07:34.924Z,31.44
2023-03-19T12:10:46.398Z,31.56
2023-03-19T12:14:02.691Z,30.76
2023-03-19T12:17:16.977Z,30.48
2023-03-19T12:20:43.336Z,30.20
2023-03-19T12:23:58.967Z,30.16
2023-03-19T12:27:12.494Z,31.25
2023-03-19T12:30:32.005Z,31.54
2023-03-19T12:33:41.169Z,30.24
2023-03-19T12:36:49.955Z,29.90
2023-03-19T12:39:59.682Z,31.72
2023-03-19T12:43:06.728Z,30.75
2023-03-19T12:46:13.229Z,30.33
2023-03-19T12:49:18.106Z,30.06
2023-03-19T12:52:23.583Z,31.34
2023-03-19T12:55:36.319Z,31.68
2023-03-19T12:58:49.806Z,32.27
2023-03-19T13:01:53.040Z,33.59
2023-03-19T13:04:57.943Z,35.17
2023-03-19T13:08:05.205Z,36.29
2023-03-19T13:11:14.929Z,38.37
2023-03-19T13:14:23.474Z,40.70
2023-03-19T13:17:31.008Z,43.75
2023-03-19T13:20:47.734Z,61.22
2023-03-19T13:23:52.862Z,68.11
2023-03-19T13:26:56.654Z,68.03
2023-03-19T13:30:17.715Z,67.67
2023-03-19T13:33:24.533Z,61.77
2023-03-19T13:36:28.623Z,56.38
2023-03-19T13:39:33.291Z,48.28
2023-03-19T13:42:39.940Z,45.90
2023-03-19T13:45:43.847Z,45.26
2023-03-19T13:48:52.555Z,46.67
2023-03-19T13:51:56.368Z,48.47
2023-03-19T13:55:27.990Z,51.46
2023-03-19T13:58:48.693Z,50.85
2023-03-19T14:01:52.587Z,52.74
2023-03-19T14:04:59.755Z,53.52
2023-03-19T14:08:02.311Z,52.24
2023-03-19T14:11:06.702Z,50.20
2023-03-19T14:14:14.571Z,44.75
2023-03-19T14:17:23.314Z,47.00
2023-03-19T14:20:35.393Z,43.93
2023-03-19T14:23:46.736Z,42.68
2023-03-19T14:26:49.892Z,41.90
2023-03-19T14:29:53.324Z,43.47
2023-03-19T14:32:58.246Z,41.62
2023-03-19T14:36:04.582Z,42.48
2023-03-19T14:39:10.639Z,42.92
2023-03-19T14:42:18.450Z,45.05
2023-03-19T14:45:32.714Z,45.22
2023-03-19T14:49:02.898Z,46.61
2023-03-19T14:52:07.578Z,47.89
2023-03-19T14:55:13.959Z,49.71
2023-03-19T14:58:16.536Z,49.99
2023-03-19T15:01:19.768Z,49.62
2023-03-19T15:04:25.454Z,50.85
2023-03-19T15:07:31.463Z,51.54
2023-03-19T15:10:37.994Z,51.61
2023-03-19T15:13:49.598Z,51.50
2023-03-19T15:16:57.671Z,51.89
2023-03-19T15:20:03.015Z,50.43
2023-03-19T15:23:19.853Z,49.13
2023-03-19T15:26:31.589Z,48.00
2023-03-19T15:29:37.852Z,49.00
2023-03-19T15:32:54.305Z,48.68
2023-03-19T15:36:09.871Z,48.10
2023-03-19T15:39:13.006Z,48.48
2023-03-19T15:42:17.915Z,47.86
2023-03-19T15:45:23.870Z,49.00
2023-03-19T15:48:29.167Z,48.90
2023-03-19T15:51:33.391Z,50.28
2023-03-19T15:54:35.962Z,50.12
2023-03-19T15:57:39.929Z,51.64
2023-03-19T16:00:42.978Z,51.46
2023-03-19T16:03:47.019Z,52.49
2023-03-19T16:06:52.627Z,53.13
2023-03-19T16:09:55.347Z,54.61
2023-03-19T16:12:57.982Z,57.92
2023-03-19T16:16:06.790Z,62.60
2023-03-19T16:19:29.092Z,67.07
2023-03-19T16:22:34.023Z,69.98
2023-03-19T16:25:36.787Z,72.91
2023-03-19T16:28:45.230Z,74.92
2023-03-19T16:31:52.367Z,74.94
2023-03-19T16:34:56.086Z,77.79
2023-03-19T16:38:14.436Z,79.27
2023-03-19T16:41:18.838Z,79.47
2023-03-19T16:44:30.220Z,80.59
2023-03-19T16:47:34.067Z,81.05
2023-03-19T16:50:38.297Z,82.74
2023-03-19T16:53:42.456Z,83.06
2023-03-19T16:56:44.943Z,83.42
2023-03-19T16:59:47.905Z,83.86
2023-03-19T17:02:50.434Z,83.91
2023-03-19T17:05:53.233Z,85.02
2023-03-19T17:08:57.201Z,85.51
2023-03-19T17:12:01.368Z,85.35
2023-03-19T17:15:04.167Z,86.11
2023-03-19T17:18:13.558Z,86.36
2023-03-19T17:21:18.383Z,86.48
2023-03-19T17:24:27.285Z,86.79
2023-03-19T17:27:30.011Z,86.60
2023-03-19T17:30:32.889Z,86.88
2023-03-19T17:33:35.842Z,86.56
2023-03-19T17:36:38.424Z,86.80
2023-03-19T17:39:43.276Z,87.32
2023-03-19T17:42:45.920Z,86.37
2023-03-19T17:45:49.299Z,86.46
2023-03-19T17:48:52.793Z,86.70
2023-03-19T17:51:56.005Z,86.88
2023-03-19T17:55:00.822Z,86.93
2023-03-19T17:58:03.460Z,85.44
2023-03-19T18:01:12.906Z,84.87
2023-03-19T18:04:17.044Z,84.89
2023-03-19T18:07:19.626Z,85.38
2023-03-19T18:10:26.639Z,86.30
2023-03-19T18:13:29.291Z,86.77
2023-03-19T18:16:33.074Z,87.92
2023-03-19T18:19:37.430Z,87.85
2023-03-19T18:22:40.063Z,87.90
2023-03-19T18:25:44.946Z,88.34
2023-03-19T18:28:47.446Z,88.48
2023-03-19T18:31:51.270Z,88.90
2023-03-19T18:34:53.777Z,89.18
2023-03-19T18:37:56.637Z,89.01
2023-03-19T18:41:00.629Z,89.27
2023-03-19T18:44:03.612Z,89.54
2023-03-19T18:47:07.317Z,89.73
2023-03-19T18:50:14.462Z,89.68
2023-03-19T18:53:17.856Z,89.34
2023-03-19T18:56:23.767Z,89.20
2023-03-19T18:59:27.742Z,89.35
2023-03-19T19:02:33.359Z,89.88
2023-03-19T19:05:36.316Z,89.89
2023-03-19T19:08:38.776Z,89.32
2023-03-19T19:11:45.685Z,88.48
2023-03-19T19:14:48.504Z,88.82
2023-03-19T19:17:51.835Z,87.48
2023-03-19T19:20:54.882Z,86.79
2023-03-19T19:23:57.482Z,86.76
2023-03-19T19:27:01.559Z,86.56
2023-03-19T19:30:04.644Z,87.19
2023-03-19T19:33:07.347Z,87.84
2023-03-19T19:36:11.660Z,88.22
2023-03-19T19:39:14.251Z,88.36
2023-03-19T19:42:19.844Z,88.89
2023-03-19T19:45:30.140Z,89.55
2023-03-19T19:48:32.610Z,89.42
2023-03-19T19:51:35.311Z,89.66
2023-03-19T19:54:39.857Z,90.12
2023-03-19T19:57:44.411Z,88.99
2023-03-19T20:01:00.149Z,87.83
2023-03-19T20:04:06.174Z,85.57
2023-03-19T20:07:08.617Z,85.35
2023-03-19T20:10:12.901Z,86.14
2023-03-19T20:13:24.833Z,85.56
2023-03-19T20:16:27.723Z,87.02
2023-03-19T20:19:30.448Z,87.57
2023-03-19T20:22:33.423Z,88.15
2023-03-19T20:25:37.616Z,89.21
2023-03-19T20:28:42.652Z,89.76
2023-03-19T20:31:46.271Z,89.64
2023-03-19T20:34:49.739Z,89.29
2023-03-19T20:37:52.918Z,88.20
2023-03-19T20:40:57.103Z,87.67
2023-03-19T20:44:02.713Z,86.82
2023-03-19T20:47:06.953Z,87.06
2023-03-19T20:50:17.550Z,86.82
2023-03-19T20:53:20.390Z,86.71
2023-03-19T20:56:24.541Z,86.40
2023-03-19T20:59:28.935Z,86.54
2023-03-19T21:02:32.227Z,86.19
2023-03-19T21:05:37.152Z,86.05
2023-03-19T21:08:41.814Z,85.88
2023-03-19T21:11:44.769Z,86.06
2023-03-19T21:14:48.612Z,86.05
2023-03-19T21:17:51.538Z,85.91
2023-03-19T21:20:55.493Z,86.06
2023-03-19T21:23:59.935Z,86.05
2023-03-19T21:27:04.084Z,86.72
2023-03-19T21:30:11.756Z,87.17
2023-03-19T21:33:22.301Z,88.63
2023-03-19T21:36:24.941Z,89.34
2023-03-19T21:39:27.488Z,89.82
2023-03-19T21:42:31.775Z,90.01
2023-03-19T21:45:36.514Z,90.66
2023-03-19T21:48:39.840Z,90.52
2023-03-19T21:51:43.661Z,90.54
2023-03-19T21:54:46.447Z,90.76
2023-03-19T21:57:49.076Z,90.46
2023-03-19T22:00:53.210Z,90.68
2023-03-19T22:03:57.243Z,90.79
2023-03-19T22:06:59.906Z,91.03
2023-03-19T22:10:02.625Z,90.95
2023-03-19T22:13:06.142Z,90.83
2023-03-19T22:16:18.265Z,91.10
2023-03-19T22:19:21.507Z,90.99
2023-03-19T22:22:24.058Z,91.71
2023-03-19T22:25:30.022Z,91.92
2023-03-19T22:28:34.366Z,91.96
2023-03-19T22:31:38.554Z,91.06
2023-03-19T22:34:41.199Z,90.53
2023-03-19T22:37:43.955Z,90.19
2023-03-19T22:40:48.284Z,89.37
2023-03-19T22:43:51.344Z,88.77
2023-03-19T22:46:55.899Z,88.04
2023-03-19T22:49:58.484Z,87.10
2023-03-19T22:53:01.048Z,86.42
2023-03-19T22:56:04.612Z,86.36
2023-03-19T22:59:07.145Z,85.90
2023-03-19T23:02:14.837Z,85.59
2023-03-19T23:05:29.673Z,85.01
2023-03-19T23:08:32.398Z,83.22
2023-03-19T23:11:34.895Z,83.47
2023-03-19T23:14:37.995Z,83.79
2023-03-19T23:17:42.366Z,83.84
2023-03-19T23:20:46.362Z,82.70
2023-03-19T23:23:49.637Z,83.04
2023-03-19T23:26:54.055Z,83.58
2023-03-19T23:29:56.588Z,82.63
2023-03-19T23:33:02.665Z,82.47
2023-03-19T23:36:05.910Z,82.33
2023-03-19T23:39:09.369Z,82.11
2023-03-19T23:42:14.068Z,79.94
2023-03-19T23:45:23.378Z,78.61
2023-03-19T23:48:32.318Z,78.58
2023-03-19T23:51:34.919Z,78.10
2023-03-19T23:54:38.790Z,78.13
2023-03-19T23:57:41.773Z,78.27
